WetterOnline ( http://www.wetteronline.de )

Wetter aktuell PLZ Bereich 09548

Aktuelles Wetter: Marienberg (640m)

6-stündlich | Neueste Meldungen
Ortszeit Temperatur Wetter
Di, 16.10. 14:00 16.9° C wolkig
Di, 16.10. 8:00 10.9° C bewölkt
Di, 16.10. 2:00 12.2° C bedeckt
Mo, 15.10. 20:00 14.9° C bewölkt
Mo, 15.10. 14:00 15.2° C bedeckt
Mo, 15.10. 8:00 10.9° C wolkenlos
Mo, 15.10. 2:00 12.0° C wolkenlos
So, 14.10. 20:00 16.8° C fast wolkenlos
Ortszeit Temperatur Wetter
Di, 16.10. 17:00 16.4° C bedeckt
Di, 16.10. 16:40 16.8° C bedeckt
Di, 16.10. 16:30 17.3° C bedeckt
Di, 16.10. 16:20 17.3° C bedeckt
Di, 16.10. 16:10 17.1° C bedeckt
Di, 16.10. 16:00 16.7° C bewölkt
Di, 16.10. 15:50 16.7° C bewölkt
Di, 16.10. 15:30 17.5° C bewölkt
Di, 16.10. 15:00 16.4° C leicht bewölkt
Di, 16.10. 14:30 17.5° C wolkig
Di, 16.10. 14:00 16.9° C wolkig
Ortszeit Relative Feuchte Sichtweite
Di, 16.10. 14:00 49% 30 km
Di, 16.10. 8:00 65% 35 km
Di, 16.10. 2:00 58% 35 km
Mo, 15.10. 20:00 46% 35 km
Mo, 15.10. 14:00 43% 40 km
Mo, 15.10. 8:00 - 50 km
Mo, 15.10. 2:00 - 50 km
So, 14.10. 20:00 - 35 km
Ortszeit Relative Feuchte Sichtweite
Di, 16.10. 17:00 56% 35 km
Di, 16.10. 16:40 54% -
Di, 16.10. 16:30 52% 40 km
Di, 16.10. 16:20 52% -
Di, 16.10. 16:10 53% -
Di, 16.10. 16:00 52% 35 km
Di, 16.10. 15:50 52% -
Di, 16.10. 15:30 49% 35 km
Di, 16.10. 15:00 52% 30 km
Di, 16.10. 14:30 48% 30 km
Di, 16.10. 14:00 49% 30 km
Ortszeit Niederschlagsmenge Niederschlagsart
Di, 16.10. 14:00 0.1 l/m2 in 6 Std. Regen
Di, 16.10. 8:00 0.0 l/m2 in 12 Std. -
Di, 16.10. 2:00 0.0 l/m2 in 6 Std. -
Mo, 15.10. 20:00 0.0 l/m2 in 12 Std. -
Mo, 15.10. 14:00 0.0 l/m2 in 6 Std. -
Mo, 15.10. 8:00 0.0 l/m2 in 12 Std. -
Mo, 15.10. 2:00 0.0 l/m2 in 6 Std. -
So, 14.10. 20:00 0.0 l/m2 in 12 Std. -
Ortszeit Niederschlagsmenge Niederschlagsart
Di, 16.10. 17:00 0.0 l/m2 in 1 Std. -
Di, 16.10. 16:40 keine Meldung -
Di, 16.10. 16:30 0.0 l/m2 in 1 Std. -
Di, 16.10. 16:20 keine Meldung -
Di, 16.10. 16:10 keine Meldung -
Di, 16.10. 16:00 0.0 l/m2 in 1 Std. -
Di, 16.10. 15:50 keine Meldung -
Di, 16.10. 15:30 0.0 l/m2 in 1 Std. -
Di, 16.10. 15:00 0.0 l/m2 in 1 Std. -
Di, 16.10. 14:30 0.0 l/m2 in 1 Std. -
Di, 16.10. 14:00 0.0 l/m2 in 1 Std. Regen
Ortszeit Stärke Spitze Richtung
km/h Bft. km/h Grad Sektor
Di, 16.10. 14:00 6 1 15 240° SW
Di, 16.10. 8:00 7 2 22 140° SO
Di, 16.10. 2:00 11 2 36 140° SO
Mo, 15.10. 20:00 9 2 37 130° SO
Mo, 15.10. 14:00 11 2 40 130° SO
Mo, 15.10. 8:00 14 3 43 130° SO
Mo, 15.10. 2:00 22 4 40 140° SO
So, 14.10. 20:00 14 3 47 140° SO
Ortszeit Stärke Spitze Richtung
km/h Bft. km/h Grad Sektor
Di, 16.10. 17:00 7 2 11 300° NW
Di, 16.10. 16:40 7 2 - 290° W
Di, 16.10. 16:30 7 2 11 250° W
Di, 16.10. 16:20 7 2 - 250° W
Di, 16.10. 16:10 7 2 - 250° W
Di, 16.10. 16:00 7 2 15 220° SW
Di, 16.10. 15:50 7 2 - 220° SW
Di, 16.10. 15:30 7 2 14 210° SW
Di, 16.10. 15:00 9 2 17 200° S
Di, 16.10. 14:30 6 1 13 240° SW
Di, 16.10. 14:00 6 1 13 240° SW
Ortszeit Untergrenze Bedeckung Gattung
total tief tief mittel hoch
Di, 16.10. 14:00 3900 m 6/8 6/8 - - -
Di, 16.10. 8:00 2700 m 8/8 5/8 - - -
Di, 16.10. 2:00 3600 m 8/8 8/8 - - -
Mo, 15.10. 20:00 2400 m 8/8 7/8 - - -
Mo, 15.10. 14:00 4800 m 8/8 8/8 - - -
Mo, 15.10. 8:00 - 0/8 0/8 - - -
Mo, 15.10. 2:00 - 0/8 0/8 - - -
So, 14.10. 20:00 2400 m 1/8 1/8 - - -
Ortszeit Bedeckungsgrad in Achtel und Wolkenuntergrenze
Di, 16.10. 17:00 8(3300m)
Di, 16.10. 16:40 8(3300m)
Di, 16.10. 16:30 8(3300m)
Di, 16.10. 16:20 8(3300m)
Di, 16.10. 16:10 8(3300m)
Di, 16.10. 16:00 7(3300m)
Di, 16.10. 15:50 7(3300m)
Di, 16.10. 15:30 7(3300m)
Di, 16.10. 15:00 1(2400m) 3(3900m)
Di, 16.10. 14:30 1(2400m) 8(3900m)
Di, 16.10. 14:00 6(3900m)
Ortszeit Luftdruck NN (hPa) Tendenz (hPa in 3 Std.)
Di, 16.10. 14:00 1018 + 0,2
Di, 16.10. 8:00 1019 + 0,6
Di, 16.10. 2:00 1018 + 0,2
Mo, 15.10. 20:00 1017 + 0,1
Mo, 15.10. 14:00 1017 + 0,5
Mo, 15.10. 8:00 1017 + 0,3
Mo, 15.10. 2:00 1016 - 0,1
So, 14.10. 20:00 1015 + 0,3
Ortszeit Luftdruck NN (hPa) Tendenz (hPa in 3 Std.)
Di, 16.10. 17:00 1018 + 0,4
Di, 16.10. 16:40 1018 keine Meldung
Di, 16.10. 16:30 1018 + 0,4
Di, 16.10. 16:20 1018 keine Meldung
Di, 16.10. 16:10 1018 keine Meldung
Di, 16.10. 16:00 1018 + 0,3
Di, 16.10. 15:50 1018 keine Meldung
Di, 16.10. 15:30 1018 0,0
Di, 16.10. 15:00 1018 0,0
Di, 16.10. 14:30 1018 + 0,2
Di, 16.10. 14:00 1018 + 0,2
Ortszeit Schneehöhe (cm)
Di, 16.10. 14:00 0
Di, 16.10. 8:00 0
Di, 16.10. 2:00 0
Mo, 15.10. 20:00 0
Mo, 15.10. 14:00 0
Mo, 15.10. 8:00 0
Mo, 15.10. 2:00 0
So, 14.10. 20:00 0
Ortszeit Schneehöhe (cm)
Di, 16.10. 17:00 0
Di, 16.10. 16:40 0
Di, 16.10. 16:30 0
Di, 16.10. 16:20 0
Di, 16.10. 16:10 0
Di, 16.10. 16:00 0
Di, 16.10. 15:50 0
Di, 16.10. 15:30 0
Di, 16.10. 15:00 0
Di, 16.10. 14:30 0
Di, 16.10. 14:00 0
Link zu dieser Seite / Seite empfehlen

Das Wetter in ...